createdAt,value
2022-11-08T00:02:23.875Z,5.57
2022-11-08T00:05:45.072Z,5.55
2022-11-08T00:09:06.078Z,5.51
2022-11-08T00:12:27.756Z,5.49
2022-11-08T00:15:33.586Z,5.53
2022-11-08T00:18:36.397Z,5.57
2022-11-08T00:21:39.198Z,5.74
2022-11-08T00:24:41.877Z,5.87
2022-11-08T00:27:44.462Z,5.99
2022-11-08T00:30:46.921Z,6.00
2022-11-08T00:33:49.699Z,6.13
2022-11-08T00:36:53.763Z,6.22
2022-11-08T00:39:56.245Z,6.31
2022-11-08T00:42:58.299Z,6.35
2022-11-08T00:46:00.383Z,6.37
2022-11-08T00:49:02.525Z,6.38
2022-11-08T00:52:04.907Z,6.29
2022-11-08T00:55:07.407Z,6.31
2022-11-08T00:58:09.352Z,6.24
2022-11-08T01:01:13.701Z,6.23
2022-11-08T01:04:18.688Z,6.22
2022-11-08T01:07:20.711Z,6.16
2022-11-08T01:10:22.637Z,6.08
2022-11-08T01:13:24.719Z,6.04
2022-11-08T01:16:29.791Z,5.91
2022-11-08T01:19:31.858Z,5.78
2022-11-08T01:22:33.837Z,5.67
2022-11-08T01:25:37.772Z,5.57
2022-11-08T01:28:39.920Z,5.48
2022-11-08T01:31:41.994Z,5.41
2022-11-08T01:34:43.890Z,5.29
2022-11-08T01:37:45.945Z,5.20
2022-11-08T01:40:49.230Z,5.15
2022-11-08T01:43:59.220Z,5.07
2022-11-08T01:47:01.189Z,5.06
2022-11-08T01:50:08.233Z,5.11
2022-11-08T01:53:10.380Z,5.09
2022-11-08T01:56:14.706Z,5.07
2022-11-08T01:59:18.664Z,5.01
2022-11-08T02:02:21.534Z,5.00
2022-11-08T02:05:26.574Z,5.06
2022-11-08T02:08:38.644Z,5.13
2022-11-08T02:11:41.597Z,5.18
2022-11-08T02:14:43.576Z,5.21
2022-11-08T02:17:45.612Z,5.23
2022-11-08T02:21:02.875Z,5.35
2022-11-08T02:24:11.028Z,5.49
2022-11-08T02:27:14.595Z,5.51
2022-11-08T02:30:16.701Z,5.58
2022-11-08T02:33:21.225Z,5.61
2022-11-08T02:36:25.137Z,5.65
2022-11-08T02:39:27.297Z,5.67
2022-11-08T02:42:29.263Z,5.64
2022-11-08T02:45:31.339Z,5.54
2022-11-08T02:48:33.426Z,5.41
2022-11-08T02:51:35.498Z,5.27
2022-11-08T02:54:37.573Z,5.13
2022-11-08T02:57:39.566Z,5.01
2022-11-08T03:00:41.652Z,4.93
2022-11-08T03:03:43.658Z,4.84
2022-11-08T03:06:45.633Z,4.73
2022-11-08T03:09:47.662Z,4.67
2022-11-08T03:13:00.351Z,4.62
2022-11-08T03:16:04.322Z,4.57
2022-11-08T03:19:06.312Z,4.54
2022-11-08T03:22:08.349Z,4.57
2022-11-08T03:25:10.633Z,4.61
2022-11-08T03:28:12.633Z,4.79
2022-11-08T03:31:14.607Z,5.00
2022-11-08T03:34:16.871Z,5.17
2022-11-08T03:37:18.934Z,5.19
2022-11-08T03:40:21.597Z,5.28
2022-11-08T03:43:23.570Z,5.42
2022-11-08T03:46:25.674Z,5.47
2022-11-08T03:49:28.121Z,5.54
2022-11-08T03:52:30.108Z,5.56
2022-11-08T03:55:32.171Z,5.49
2022-11-08T03:58:35.626Z,5.47
2022-11-08T04:01:38.450Z,5.47
2022-11-08T04:04:40.566Z,5.50
2022-11-08T04:07:43.381Z,5.49
2022-11-08T04:10:45.482Z,5.41
2022-11-08T04:14:06.094Z,5.46
2022-11-08T04:17:08.046Z,5.46
2022-11-08T04:20:29.194Z,5.49
2022-11-08T04:23:32.571Z,5.49
2022-11-08T04:26:34.591Z,5.58
2022-11-08T04:29:36.677Z,5.57
2022-11-08T04:32:38.620Z,5.53
2022-11-08T04:35:40.669Z,5.52
2022-11-08T04:38:43.097Z,5.49
2022-11-08T04:41:45.133Z,5.49
2022-11-08T04:44:47.152Z,5.55
2022-11-08T04:47:49.554Z,5.57
2022-11-08T04:50:51.515Z,5.53
2022-11-08T04:53:55.550Z,5.54
2022-11-08T04:56:57.552Z,5.56
2022-11-08T04:59:59.532Z,5.51
2022-11-08T05:03:04.501Z,5.49
2022-11-08T05:06:10.571Z,5.46
2022-11-08T05:09:12.552Z,5.42
2022-11-08T05:12:14.523Z,5.41
2022-11-08T05:15:16.447Z,5.34
2022-11-08T05:18:18.836Z,5.18
2022-11-08T05:21:41.477Z,5.01
2022-11-08T05:24:43.465Z,4.84
2022-11-08T05:27:45.499Z,4.63
2022-11-08T05:30:57.258Z,4.51
2022-11-08T05:34:00.893Z,4.39
2022-11-08T05:37:02.974Z,4.32
2022-11-08T05:40:05.543Z,4.23
2022-11-08T05:43:07.784Z,4.17
2022-11-08T05:46:09.801Z,4.18
2022-11-08T05:49:12.004Z,4.19
2022-11-08T05:52:13.977Z,4.14
2022-11-08T05:55:16.016Z,4.08
2022-11-08T05:58:18.184Z,4.04
2022-11-08T06:01:20.583Z,4.06
2022-11-08T06:04:22.538Z,4.14
2022-11-08T06:07:24.709Z,4.19
2022-11-08T06:10:26.998Z,4.45
2022-11-08T06:13:29.388Z,4.66
2022-11-08T06:16:31.796Z,4.81
2022-11-08T06:19:33.723Z,4.97
2022-11-08T06:22:36.112Z,4.97
2022-11-08T06:25:38.204Z,4.85
2022-11-08T06:28:40.225Z,4.78
2022-11-08T06:31:43.300Z,4.56
2022-11-08T06:34:49.257Z,4.75
2022-11-08T06:37:51.322Z,4.87
2022-11-08T06:40:53.925Z,4.92
2022-11-08T06:43:56.281Z,4.77
2022-11-08T06:46:59.937Z,5.00
2022-11-08T06:50:01.902Z,5.03
2022-11-08T06:53:06.478Z,5.09
2022-11-08T06:56:09.041Z,5.20
2022-11-08T06:59:11.584Z,5.31
2022-11-08T07:02:13.915Z,5.41
2022-11-08T07:05:15.944Z,5.57
2022-11-08T07:08:23.328Z,5.65
2022-11-08T07:11:26.283Z,5.85
2022-11-08T07:14:28.358Z,6.12
2022-11-08T07:17:34.271Z,6.53
2022-11-08T07:20:40.203Z,6.85
2022-11-08T07:23:42.217Z,7.16
2022-11-08T07:26:44.271Z,7.82
2022-11-08T07:29:46.625Z,8.77
2022-11-08T07:32:48.866Z,9.52
2022-11-08T07:35:50.843Z,9.94
2022-11-08T07:38:52.897Z,10.05
2022-11-08T07:41:54.906Z,10.21
2022-11-08T07:44:56.828Z,10.11
2022-11-08T07:48:00.271Z,10.09
2022-11-08T07:51:02.249Z,9.94
2022-11-08T07:54:04.279Z,9.80
2022-11-08T07:57:06.304Z,9.82
2022-11-08T08:00:09.175Z,9.89
2022-11-08T08:03:14.013Z,10.01
2022-11-08T08:06:15.984Z,9.94
2022-11-08T08:09:18.035Z,9.79
2022-11-08T08:12:20.014Z,9.67
2022-11-08T08:15:22.446Z,9.63
2022-11-08T08:18:24.438Z,9.69
2022-11-08T08:21:26.406Z,9.78
2022-11-08T08:24:28.341Z,9.92
2022-11-08T08:27:30.293Z,10.05
2022-11-08T08:30:32.730Z,10.34
2022-11-08T08:33:34.994Z,10.23
2022-11-08T08:36:37.021Z,10.42
2022-11-08T08:39:39.057Z,10.74
2022-11-08T08:42:41.080Z,10.54
2022-11-08T08:45:43.804Z,10.56
2022-11-08T08:48:45.777Z,10.41
2022-11-08T08:51:47.783Z,10.58
2022-11-08T08:54:50.210Z,10.53
2022-11-08T08:57:52.261Z,10.65
2022-11-08T09:04:16.500Z,10.73
2022-11-08T09:07:18.725Z,10.91
2022-11-08T09:10:21.139Z,11.01
2022-11-08T09:13:24.626Z,11.07
2022-11-08T09:16:26.834Z,11.31
2022-11-08T09:19:28.801Z,11.48
2022-11-08T09:22:33.367Z,11.35
2022-11-08T09:25:35.396Z,11.41
2022-11-08T09:28:37.596Z,11.40
2022-11-08T09:31:39.733Z,11.47
2022-11-08T09:34:41.750Z,11.51
2022-11-08T09:37:47.104Z,11.61
2022-11-08T09:40:57.696Z,11.77
2022-11-08T09:44:08.295Z,12.19
2022-11-08T09:47:19.309Z,12.61
2022-11-08T09:50:31.330Z,13.10
2022-11-08T09:53:49.579Z,13.63
2022-11-08T09:56:53.983Z,14.21
2022-11-08T10:00:05.934Z,14.70
2022-11-08T10:03:15.605Z,15.01
2022-11-08T10:06:20.924Z,15.42
2022-11-08T10:09:25.745Z,15.78
2022-11-08T10:13:01.374Z,15.88
2022-11-08T10:16:09.422Z,16.41
2022-11-08T10:19:11.335Z,17.07
2022-11-08T10:22:41.152Z,16.56
2022-11-08T10:25:47.297Z,16.44
2022-11-08T10:28:55.180Z,16.77
2022-11-08T10:32:05.589Z,16.93
2022-11-08T10:35:34.966Z,17.38
2022-11-08T10:39:01.437Z,17.82
2022-11-08T10:42:13.912Z,17.13
2022-11-08T10:45:16.019Z,17.41
2022-11-08T10:48:18.322Z,16.84
2022-11-08T10:51:20.472Z,16.87
2022-11-08T10:54:51.296Z,17.37
2022-11-08T10:57:53.753Z,17.01
2022-11-08T11:01:17.741Z,16.57
2022-11-08T11:04:27.962Z,16.60
2022-11-08T11:07:36.528Z,16.56
2022-11-08T11:10:39.843Z,17.93
2022-11-08T11:13:41.791Z,17.27
2022-11-08T11:17:14.285Z,18.17
2022-11-08T11:20:23.168Z,17.70
2022-11-08T11:23:52.454Z,17.32
2022-11-08T11:26:57.552Z,17.62
2022-11-08T11:30:15.282Z,17.88
2022-11-08T11:33:27.712Z,18.45
2022-11-08T11:36:30.523Z,18.62
2022-11-08T11:39:54.372Z,17.61
2022-11-08T11:43:16.673Z,16.66
2022-11-08T11:46:31.597Z,16.84
2022-11-08T11:49:36.011Z,16.53
2022-11-08T11:52:38.103Z,16.87
2022-11-08T11:56:05.778Z,17.31
2022-11-08T11:59:40.128Z,17.33
2022-11-08T12:03:11.143Z,17.44
2022-11-08T12:06:25.873Z,17.43
2022-11-08T12:09:46.565Z,17.29
2022-11-08T12:13:22.687Z,17.21
2022-11-08T12:16:43.063Z,17.55
2022-11-08T12:19:57.406Z,17.47
2022-11-08T12:23:24.737Z,17.42
2022-11-08T12:26:40.999Z,17.28
2022-11-08T12:29:48.938Z,17.44
2022-11-08T12:33:09.803Z,17.29
2022-11-08T12:36:37.263Z,17.29
2022-11-08T12:39:59.625Z,17.47
2022-11-08T12:43:05.517Z,17.28
2022-11-08T12:46:19.154Z,17.06
2022-11-08T12:49:36.777Z,17.78
2022-11-08T12:52:53.979Z,17.48
2022-11-08T12:55:58.089Z,17.14
2022-11-08T12:59:01.414Z,16.97
2022-11-08T13:02:05.114Z,16.62
2022-11-08T13:05:21.111Z,16.12
2022-11-08T13:08:35.781Z,16.34
2022-11-08T13:12:07.198Z,16.40
2022-11-08T13:15:22.110Z,16.62
2022-11-08T13:18:33.340Z,16.08
2022-11-08T13:21:39.094Z,16.34
2022-11-08T13:24:44.726Z,16.02
2022-11-08T13:27:48.537Z,15.72
2022-11-08T13:31:02.075Z,15.76
2022-11-08T13:34:12.558Z,15.86
2022-11-08T13:37:51.804Z,15.89
2022-11-08T13:41:02.724Z,15.85
2022-11-08T13:44:43.297Z,15.68
2022-11-08T13:47:48.066Z,15.50
2022-11-08T13:51:27.960Z,15.62
2022-11-08T13:54:48.727Z,15.67
2022-11-08T13:57:58.170Z,15.38
2022-11-08T14:01:02.046Z,15.11
2022-11-08T14:04:24.172Z,15.10
2022-11-08T14:07:46.508Z,14.99
2022-11-08T14:11:00.243Z,14.75
2022-11-08T14:14:34.000Z,14.69
2022-11-08T14:17:59.338Z,14.62
2022-11-08T14:21:04.009Z,14.47
2022-11-08T14:24:15.192Z,14.38
2022-11-08T14:27:33.645Z,14.42
2022-11-08T14:30:35.757Z,14.31
2022-11-08T14:33:42.730Z,14.28
2022-11-08T14:36:45.340Z,14.09
2022-11-08T14:39:48.213Z,13.95
2022-11-08T14:42:51.721Z,13.75
2022-11-08T14:45:54.264Z,13.70
2022-11-08T14:48:58.319Z,13.59
2022-11-08T14:52:19.129Z,13.49
2022-11-08T14:55:25.572Z,13.32
2022-11-08T14:58:29.940Z,13.17
2022-11-08T15:01:33.527Z,13.03
2022-11-08T15:04:40.702Z,12.93
2022-11-08T15:07:46.939Z,12.76
2022-11-08T15:11:03.569Z,12.64
2022-11-08T15:14:09.848Z,12.55
2022-11-08T15:17:32.456Z,12.43
2022-11-08T15:20:34.693Z,12.32
2022-11-08T15:23:47.063Z,12.23
2022-11-08T15:27:13.559Z,12.12
2022-11-08T15:30:21.655Z,12.07
2022-11-08T15:33:38.059Z,11.98
2022-11-08T15:36:40.987Z,11.90
2022-11-08T15:39:46.574Z,11.81
2022-11-08T15:42:51.813Z,11.74
2022-11-08T15:45:54.341Z,11.71
2022-11-08T15:48:59.213Z,11.59
2022-11-08T15:52:03.599Z,11.57
2022-11-08T15:55:07.953Z,11.61
2022-11-08T15:58:28.720Z,11.55
2022-11-08T16:01:32.109Z,11.51
2022-11-08T16:04:35.475Z,11.39
2022-11-08T16:07:38.447Z,11.38
2022-11-08T16:10:47.659Z,11.26
2022-11-08T16:13:51.955Z,11.21
2022-11-08T16:16:58.355Z,11.17
2022-11-08T16:20:02.653Z,11.12
2022-11-08T16:23:11.619Z,11.11
2022-11-08T16:26:18.536Z,11.08
2022-11-08T16:29:25.000Z,11.00
2022-11-08T16:32:29.158Z,10.93
2022-11-08T16:35:41.578Z,10.92
2022-11-08T16:38:56.920Z,10.83
2022-11-08T16:42:00.118Z,10.78
2022-11-08T16:45:02.879Z,10.75
2022-11-08T16:48:06.505Z,10.75
2022-11-08T16:51:18.536Z,10.73
2022-11-08T16:54:25.094Z,10.71
2022-11-08T16:57:34.654Z,10.74
2022-11-08T17:00:46.563Z,10.72
2022-11-08T17:03:50.040Z,10.70
2022-11-08T17:06:54.055Z,10.74
2022-11-08T17:09:57.313Z,10.76
2022-11-08T17:13:00.567Z,10.75
2022-11-08T17:16:03.574Z,10.69
2022-11-08T17:19:06.817Z,10.62
2022-11-08T17:22:09.633Z,10.57
2022-11-08T17:25:16.667Z,10.51
2022-11-08T17:28:19.663Z,10.43
2022-11-08T17:31:23.724Z,10.37
2022-11-08T17:34:27.548Z,10.27
2022-11-08T17:37:30.973Z,10.20
2022-11-08T17:40:36.679Z,10.19
2022-11-08T17:43:40.322Z,10.25
2022-11-08T17:46:43.828Z,10.19
2022-11-08T17:49:46.741Z,10.27
2022-11-08T17:52:53.883Z,10.23
2022-11-08T17:56:00.431Z,10.23
2022-11-08T17:59:04.188Z,10.27
2022-11-08T18:02:07.853Z,10.30
2022-11-08T18:05:17.074Z,10.29
2022-11-08T18:08:26.495Z,10.34
2022-11-08T18:11:30.007Z,10.31
2022-11-08T18:14:33.179Z,10.27
2022-11-08T18:17:36.937Z,10.27
2022-11-08T18:20:40.275Z,10.24
2022-11-08T18:23:48.594Z,10.16
2022-11-08T18:26:52.417Z,10.19
2022-11-08T18:29:57.782Z,10.19
2022-11-08T18:33:00.832Z,10.22
2022-11-08T18:36:05.691Z,10.26
2022-11-08T18:39:12.077Z,10.25
2022-11-08T18:42:17.316Z,10.28
2022-11-08T18:45:20.779Z,10.25
2022-11-08T18:48:25.214Z,10.25
2022-11-08T18:51:28.357Z,10.31
2022-11-08T18:54:32.095Z,10.29
2022-11-08T18:57:36.684Z,10.25
2022-11-08T19:00:40.869Z,10.22
2022-11-08T19:03:43.821Z,10.19
2022-11-08T19:06:54.374Z,10.20
2022-11-08T19:09:59.649Z,10.24
2022-11-08T19:13:08.198Z,10.17
2022-11-08T19:16:17.746Z,10.07
2022-11-08T19:19:21.569Z,9.97
2022-11-08T19:22:25.275Z,9.93
2022-11-08T19:25:28.886Z,9.89
2022-11-08T19:28:34.405Z,9.85
2022-11-08T19:31:37.651Z,9.86
2022-11-08T19:34:42.404Z,9.89
2022-11-08T19:37:46.160Z,9.89
2022-11-08T19:40:51.014Z,9.86
2022-11-08T19:43:58.218Z,9.83
2022-11-08T19:47:01.294Z,9.83
2022-11-08T19:50:05.426Z,9.90
2022-11-08T19:53:08.991Z,9.92
2022-11-08T19:56:15.858Z,9.83
2022-11-08T19:59:20.642Z,9.84
2022-11-08T20:02:26.002Z,9.80
2022-11-08T20:05:29.251Z,9.74
2022-11-08T20:08:32.880Z,9.75
2022-11-08T20:11:43.483Z,9.75
2022-11-08T20:14:49.853Z,9.70
2022-11-08T20:17:53.681Z,9.66
2022-11-08T20:20:57.960Z,9.68
2022-11-08T20:24:01.393Z,9.60
2022-11-08T20:27:05.647Z,9.58
2022-11-08T20:30:09.596Z,9.57
2022-11-08T20:33:16.608Z,9.49
2022-11-08T20:36:23.909Z,9.47
2022-11-08T20:39:28.436Z,9.41
2022-11-08T20:42:31.723Z,9.39
2022-11-08T20:45:39.723Z,9.34
2022-11-08T20:48:44.727Z,9.36
2022-11-08T20:51:48.377Z,9.31
2022-11-08T20:54:51.915Z,9.32
2022-11-08T20:57:55.041Z,9.33
2022-11-08T21:00:59.488Z,9.35
2022-11-08T21:04:02.557Z,9.27
2022-11-08T21:08:00.925Z,9.27
2022-11-08T21:10:42.780Z,9.19
2022-11-08T21:13:47.961Z,9.20
2022-11-08T21:17:20.347Z,9.13
2022-11-08T21:20:15.740Z,9.16
2022-11-08T21:23:19.693Z,9.15
2022-11-08T21:26:23.473Z,9.12
2022-11-08T21:29:27.531Z,9.11
2022-11-08T21:32:30.392Z,9.10
2022-11-08T21:35:33.415Z,9.07
2022-11-08T21:38:37.719Z,9.04
2022-11-08T21:41:40.592Z,8.97
2022-11-08T21:44:42.745Z,8.95
2022-11-08T21:47:49.735Z,8.91
2022-11-08T21:50:52.080Z,8.92
2022-11-08T21:53:56.184Z,8.89
2022-11-08T21:56:58.450Z,8.84
2022-11-08T22:00:00.572Z,8.79
2022-11-08T22:03:02.849Z,8.73
2022-11-08T22:06:05.071Z,8.71
2022-11-08T22:09:07.144Z,8.68
2022-11-08T22:12:09.201Z,8.65
2022-11-08T22:15:11.507Z,8.64
2022-11-08T22:18:16.408Z,8.67
2022-11-08T22:21:43.265Z,8.67
2022-11-08T22:24:45.609Z,8.66
2022-11-08T22:27:47.702Z,8.64
2022-11-08T22:30:51.456Z,8.60
2022-11-08T22:33:53.529Z,8.56
2022-11-08T22:36:55.495Z,8.53
2022-11-08T22:39:57.667Z,8.56
2022-11-08T22:42:59.700Z,8.53
2022-11-08T22:46:02.037Z,8.57
2022-11-08T22:49:04.796Z,8.56
2022-11-08T22:52:06.879Z,8.50
2022-11-08T22:55:09.343Z,8.56
2022-11-08T22:58:12.621Z,8.47
2022-11-08T23:01:15.978Z,8.48
2022-11-08T23:04:19.584Z,8.51
2022-11-08T23:07:21.639Z,8.50
2022-11-08T23:10:23.900Z,8.50
2022-11-08T23:13:44.605Z,8.48
2022-11-08T23:16:47.122Z,8.52
2022-11-08T23:20:07.534Z,8.44
2022-11-08T23:23:29.152Z,8.47
2022-11-08T23:26:50.176Z,8.50
2022-11-08T23:30:10.807Z,8.46
2022-11-08T23:33:12.880Z,8.47
2022-11-08T23:36:15.974Z,8.46
2022-11-08T23:39:18.280Z,8.45
2022-11-08T23:42:39.245Z,8.46
2022-11-08T23:45:41.227Z,8.46
2022-11-08T23:48:43.433Z,8.49
2022-11-08T23:51:45.645Z,8.48
2022-11-08T23:54:47.623Z,8.44
2022-11-08T23:57:49.570Z,8.50
